Time;durP1;ratioP1;P1;durP2;ratioP2;P2;SDS_P1;SDS_P2;PMS_P1;PMS_P2;Temp;Humidity;BMP_temperature;BMP_pressure;BME280_temperature;BME280_humidity;BME280_pressure;Samples;Min_cycle;Max_cycle;Signal;HPM_P1;HPM_P2
2022/04/19 00:01:33;;;;;;;0.10;0.10;;;;;;;11.84;53.86;101019.00;5027498;28;20079;-68
2022/04/19 00:03:58;;;;;;;0.20;0.20;;;;;;;11.89;54.31;101019.50;5047694;28;20044;-68
2022/04/19 00:06:24;;;;;;;0.10;0.10;;;;;;;11.78;54.16;101016.59;5044515;28;20025;-68
2022/04/19 00:08:51;;;;;;;0.20;0.20;;;;;;;11.84;55.13;101019.78;5051612;28;20090;-68
2022/04/19 00:11:17;;;;;;;0.10;0.10;;;;;;;11.81;54.45;101011.63;5052547;28;20427;-68
2022/04/19 00:13:42;;;;;;;0.10;0.10;;;;;;;11.78;54.64;101010.41;5033871;28;20033;-69
2022/04/19 00:16:08;;;;;;;0.15;0.15;;;;;;;11.67;54.45;101014.81;5045486;28;20198;-68
2022/04/19 00:18:33;;;;;;;0.10;0.10;;;;;;;11.64;54.75;101010.84;5049586;28;20033;-67
2022/04/19 00:20:59;;;;;;;0.10;0.10;;;;;;;11.64;54.97;101016.25;5051985;28;20060;-68
2022/04/19 00:23:24;;;;;;;0.03;0.03;;;;;;;11.53;55.60;101014.44;5033555;28;20098;-68
2022/04/19 00:25:52;;;;;;;0.10;0.10;;;;;;;11.41;55.64;101007.25;5048958;28;20112;-68
2022/04/19 00:28:18;;;;;;;0.20;0.20;;;;;;;11.30;56.64;101006.25;5032490;28;20052;-68
2022/04/19 00:30:45;;;;;;;0.10;0.10;;;;;;;11.34;56.36;101001.69;5018441;28;20501;-68
2022/04/19 00:33:11;;;;;;;0.10;0.10;;;;;;;11.29;56.56;101001.97;5032648;28;20064;-71
2022/04/19 00:35:37;;;;;;;0.10;0.10;;;;;;;11.32;56.95;100997.78;5042153;28;20477;-69
2022/04/19 00:38:03;;;;;;;0.10;0.10;;;;;;;11.30;56.87;100994.66;5034759;28;20029;-70
2022/04/19 00:40:29;;;;;;;0.10;0.10;;;;;;;11.31;56.99;101004.31;5043715;28;20519;-69
2022/04/19 00:42:54;;;;;;;0.10;0.10;;;;;;;11.16;57.39;101000.50;5037625;28;20060;-70
2022/04/19 00:45:22;;;;;;;0.20;0.20;;;;;;;11.20;57.28;100993.28;5035291;28;20030;-70
2022/04/19 00:47:49;;;;;;;0.00;0.00;;;;;;;11.19;57.99;100999.03;5030466;28;20032;-70
2022/04/19 00:50:15;;;;;;;0.05;0.05;;;;;;;11.13;58.30;100995.81;5017888;28;20054;-70
2022/04/19 00:52:43;;;;;;;0.10;0.10;;;;;;;11.21;57.81;101002.94;5030969;28;20432;-72
2022/04/19 00:55:10;;;;;;;0.10;0.10;;;;;;;11.11;58.87;100984.59;5045072;28;20048;-70
2022/04/19 00:57:41;;;;;;;0.15;0.15;;;;;;;11.06;58.12;100992.16;5039811;28;20432;-70
2022/04/19 01:00:12;;;;;;;0.00;0.00;;;;;;;11.00;59.05;100990.84;5032971;28;20051;-70
2022/04/19 01:02:41;;;;;;;0.10;0.10;;;;;;;11.00;58.94;100990.84;5025199;28;20124;-71
2022/04/19 01:05:10;;;;;;;0.10;0.10;;;;;;;10.87;59.69;100990.97;5044270;28;20119;-70
2022/04/19 01:07:37;;;;;;;0.10;0.10;;;;;;;10.86;59.86;100992.09;5020709;28;20547;-71
2022/04/19 01:10:04;;;;;;;0.10;0.10;;;;;;;10.85;60.05;100992.44;5033645;28;20036;-71
2022/04/19 01:15:18;;;;;;;0.25;0.25;;;;;;;10.77;59.57;100985.31;5030274;28;20406;-70
2022/04/19 01:18:01;;;;;;;;;;;;;;;10.61;60.33;100979.13;5036675;28;20044;-70
2022/04/19 01:20:28;;;;;;;0.10;0.10;;;;;;;10.58;60.87;100991.38;5032762;28;19966;-70
2022/04/19 01:22:54;;;;;;;0.10;0.10;;;;;;;10.54;61.18;100985.13;5031852;28;20060;-70
2022/04/19 01:25:24;;;;;;;0.00;0.00;;;;;;;10.60;60.70;100982.97;5036539;28;20044;-70
2022/04/19 01:27:51;;;;;;;0.10;0.10;;;;;;;10.59;61.41;100981.38;5030632;28;20039;-71
2022/04/19 01:30:18;;;;;;;0.10;0.10;;;;;;;10.61;61.51;100988.00;5036428;28;20405;-71
2022/04/19 01:32:45;;;;;;;0.10;0.10;;;;;;;10.57;61.85;100992.50;5045746;28;20056;-70
2022/04/19 01:35:15;;;;;;;0.10;0.10;;;;;;;10.48;62.09;100985.72;5013805;28;20037;-71
2022/04/19 01:37:49;;;;;;;0.10;0.10;;;;;;;10.40;63.08;100982.06;5018727;28;20120;-71
2022/04/19 01:40:21;;;;;;;0.10;0.10;;;;;;;10.31;63.69;100981.44;5031809;28;20029;-71
2022/04/19 01:42:52;;;;;;;0.10;0.10;;;;;;;10.23;64.72;100982.38;5027469;28;20094;-71
2022/04/19 01:45:20;;;;;;;0.10;0.10;;;;;;;10.19;63.99;100980.72;5048231;28;20036;-71
2022/04/19 01:47:46;;;;;;;0.10;0.10;;;;;;;10.13;64.16;100985.56;5047549;28;20033;-71
2022/04/19 01:50:14;;;;;;;0.10;0.10;;;;;;;10.13;64.01;100990.94;5031738;28;22257;-73
2022/04/19 01:52:41;;;;;;;0.10;0.10;;;;;;;10.11;64.43;100982.44;5037230;28;20124;-71
2022/04/19 01:55:13;;;;;;;0.10;0.10;;;;;;;10.06;63.83;100990.72;5048393;28;20048;-71
2022/04/19 01:57:49;;;;;;;0.30;0.30;;;;;;;10.04;64.13;100984.91;5031208;28;20451;-69
2022/04/19 02:00:16;;;;;;;0.10;0.10;;;;;;;10.00;64.46;100992.09;5030882;28;20036;-69
2022/04/19 02:02:43;;;;;;;0.10;0.10;;;;;;;10.01;64.21;100993.66;5043235;28;20604;-69
2022/04/19 02:05:11;;;;;;;0.10;0.10;;;;;;;9.92;65.03;100993.00;5047847;28;20032;-70
2022/04/19 02:07:41;;;;;;;0.10;0.10;;;;;;;9.88;65.56;100986.75;5029349;28;20033;-69
2022/04/19 02:10:09;;;;;;;0.10;0.10;;;;;;;9.84;66.37;100988.56;5015828;28;20099;-69
2022/04/19 02:12:35;;;;;;;0.30;0.30;;;;;;;9.75;67.15;100990.59;5028886;28;20041;-69
2022/04/19 02:15:26;;;;;;;0.10;0.10;;;;;;;9.77;66.80;100988.34;5021392;28;20083;-69
2022/04/19 02:17:54;;;;;;;0.10;0.10;;;;;;;9.74;66.95;100980.94;5023485;28;20068;-72
2022/04/19 02:20:20;;;;;;;0.10;0.10;;;;;;;9.72;67.17;100983.19;5046328;28;20409;-71
2022/04/19 02:22:46;;;;;;;0.10;0.10;;;;;;;9.68;66.80;100976.94;5045529;28;20038;-71
2022/04/19 02:25:14;;;;;;;0.10;0.10;;;;;;;9.70;66.75;100982.75;5033912;28;20032;-71
2022/04/19 02:27:41;;;;;;;0.10;0.10;;;;;;;9.59;67.31;100981.66;5031043;28;20037;-71
2022/04/19 02:30:14;;;;;;;0.10;0.10;;;;;;;9.52;68.46;100979.56;5027645;28;20033;-73
2022/04/19 02:32:43;;;;;;;0.10;0.10;;;;;;;9.40;68.73;100973.41;5030129;28;20366;-70
2022/04/19 02:35:09;;;;;;;0.10;0.10;;;;;;;9.43;68.96;100988.84;5028766;28;20500;-71
2022/04/19 02:37:36;;;;;;;0.10;0.10;;;;;;;9.39;69.05;100985.31;5045100;28;20047;-71
2022/04/19 02:40:03;;;;;;;0.20;0.20;;;;;;;9.34;69.53;100985.53;5027671;28;20033;-71
2022/04/19 02:42:29;;;;;;;0.10;0.10;;;;;;;9.38;69.07;100979.16;5027958;28;20228;-70
2022/04/19 02:44:56;;;;;;;0.75;0.45;;;;;;;9.34;68.89;100985.53;5028783;28;20032;-70
2022/04/19 02:47:22;;;;;;;0.10;0.10;;;;;;;9.26;69.98;100995.28;5028466;28;20041;-70
2022/04/19 02:49:49;;;;;;;0.10;0.10;;;;;;;9.21;69.76;100986.66;5034066;28;20127;-70
2022/04/19 02:52:17;;;;;;;0.10;0.10;;;;;;;9.20;70.06;100988.56;5025289;28;20045;-70
2022/04/19 02:54:42;;;;;;;0.10;0.10;;;;;;;9.23;69.96;100989.78;5026388;28;20071;-72
2022/04/19 02:57:07;;;;;;;2.92;0.90;;;;;;;9.33;69.56;100983.97;5044437;28;20037;-72
2022/04/19 02:59:33;;;;;;;0.20;0.20;;;;;;;9.27;69.79;100988.75;5013596;28;21120;-71
2022/04/19 03:02:01;;;;;;;0.40;0.40;;;;;;;9.24;69.41;100984.06;5032479;28;20125;-70
2022/04/19 03:04:26;;;;;;;0.17;0.17;;;;;;;9.22;69.86;100974.78;5025977;28;20107;-70
2022/04/19 03:06:52;;;;;;;0.10;0.10;;;;;;;9.12;70.64;100972.56;5047553;28;20049;-70
2022/04/19 03:09:17;;;;;;;0.20;0.20;;;;;;;9.13;70.48;100974.91;5028364;28;20176;-70
2022/04/19 03:11:43;;;;;;;0.32;0.22;;;;;;;9.08;70.47;100983.97;5031968;28;20079;-71
2022/04/19 03:14:10;;;;;;;0.30;0.30;;;;;;;9.07;71.00;100977.03;5021997;28;20033;-72
2022/04/19 03:16:35;;;;;;;0.10;0.10;;;;;;;9.09;71.35;100974.81;5030406;28;20128;-73
2022/04/19 03:19:01;;;;;;;0.10;0.10;;;;;;;9.06;70.93;100974.66;5032337;28;20127;-70
2022/04/19 03:21:27;;;;;;;0.10;0.10;;;;;;;9.05;70.91;100979.28;5036419;28;20033;-72
2022/04/19 03:29:22;;;;;;;0.10;0.10;;;;;;;8.96;71.47;100975.16;5034512;28;20032;-71
2022/04/19 03:31:47;;;;;;;0.10;0.10;;;;;;;8.92;71.65;100969.63;5047131;28;20422;-71
2022/04/19 03:34:14;;;;;;;0.00;0.00;;;;;;;8.92;71.34;100968.88;5034242;28;20168;-71
2022/04/19 03:36:39;;;;;;;0.10;0.10;;;;;;;8.85;71.89;100969.41;5032620;28;20112;-71
2022/04/19 03:39:05;;;;;;;0.10;0.10;;;;;;;8.84;71.34;100967.06;5030821;28;20040;-71
2022/04/19 03:41:49;;;;;;;0.10;0.10;;;;;;;8.77;72.00;100964.94;5035043;28;20021;-71
2022/04/19 03:44:14;;;;;;;0.03;0.03;;;;;;;8.75;71.95;100969.09;5031738;28;20037;-70
2022/04/19 03:49:26;;;;;;;0.10;0.10;;;;;;;8.65;72.45;100959.53;5046406;28;20037;-72
2022/04/19 03:51:52;;;;;;;0.03;0.03;;;;;;;8.62;73.21;100967.47;5031554;28;20034;-71
2022/04/19 03:54:17;;;;;;;0.10;0.10;;;;;;;8.61;73.10;100974.78;5036568;28;20048;-71
2022/04/19 03:56:43;;;;;;;0.10;0.10;;;;;;;8.62;73.31;100970.16;5029203;28;20120;-71
2022/04/19 03:59:12;;;;;;;0.10;0.10;;;;;;;8.62;73.14;100976.31;5029552;28;20036;-70
2022/04/19 04:01:38;;;;;;;0.10;0.10;;;;;;;8.60;72.92;100969.72;5028855;28;20056;-71
2022/04/19 04:04:06;;;;;;;0.10;0.10;;;;;;;8.54;73.46;100984.47;5030852;28;20021;-72
2022/04/19 04:06:33;;;;;;;0.10;0.10;;;;;;;8.56;73.48;100982.22;5028539;28;20025;-72
2022/04/19 04:08:59;;;;;;;0.10;0.10;;;;;;;8.58;73.55;100982.69;5050714;28;20029;-70
2022/04/19 04:11:25;;;;;;;0.00;0.00;;;;;;;8.56;73.24;100985.72;5009296;28;20030;-71
2022/04/19 04:14:02;;;;;;;0.10;0.10;;;;;;;8.57;73.09;100984.59;5030106;28;20033;-70
2022/04/19 04:16:27;;;;;;;0.10;0.10;;;;;;;8.54;73.23;100989.84;5049746;28;20083;-71
2022/04/19 04:18:53;;;;;;;0.10;0.10;;;;;;;8.51;73.87;100985.94;5017547;28;20017;-71
2022/04/19 04:21:18;;;;;;;0.10;0.10;;;;;;;8.46;74.04;100990.72;5050739;28;20056;-72
2022/04/19 04:23:44;;;;;;;0.35;0.35;;;;;;;8.49;74.28;100993.53;5030893;28;20044;-73
2022/04/19 04:26:15;;;;;;;0.20;0.20;;;;;;;8.49;74.54;100993.53;5044612;28;20493;-71
2022/04/19 04:28:40;;;;;;;0.20;0.20;;;;;;;8.51;74.30;100995.88;5032896;28;20039;-70
2022/04/19 04:31:07;;;;;;;0.10;0.10;;;;;;;8.51;73.85;100988.63;5032081;28;20533;-71
2022/04/19 04:33:33;;;;;;;0.10;0.10;;;;;;;8.56;74.19;100987.59;5033415;28;20555;-71
2022/04/19 04:36:02;;;;;;;0.35;0.35;;;;;;;8.50;74.22;100984.34;5026121;28;20468;-70
2022/04/19 04:38:28;;;;;;;0.70;0.30;;;;;;;8.49;74.22;100993.53;5026452;28;20083;-70
2022/04/19 04:40:55;;;;;;;0.10;0.10;;;;;;;8.47;74.59;100986.91;5033205;28;20387;-70
2022/04/19 04:43:20;;;;;;;0.15;0.15;;;;;;;8.46;74.78;100986.13;5033873;28;20109;-71
2022/04/19 04:49:35;;;;;;;0.10;0.10;;;;;;;8.49;74.29;100992.75;5031508;28;20032;-72
2022/04/19 04:51:15;;;;;;;0.10;0.10;;;;;;;8.62;74.00;100991.66;5030330;28;20123;-70
2022/04/19 04:53:41;;;;;;;0.10;0.10;;;;;;;8.65;73.50;100991.75;5036519;28;20072;-70
2022/04/19 04:56:26;;;;;;;0.25;0.25;;;;;;;8.70;73.40;100986.19;5028079;28;20033;-72
2022/04/19 04:58:52;;;;;;;0.17;0.17;;;;;;;8.71;73.72;100989.66;5029695;28;20036;-71
2022/04/19 05:01:17;;;;;;;0.10;0.10;;;;;;;8.79;73.21;100991.44;5038533;28;20040;-71
2022/04/19 05:03:43;;;;;;;0.20;0.20;;;;;;;8.85;73.11;100990.09;5020247;28;20033;-70
2022/04/19 05:06:13;;;;;;;0.35;0.35;;;;;;;8.92;72.78;100993.81;5035207;28;20060;-71
2022/04/19 05:08:38;;;;;;;0.20;0.20;;;;;;;8.90;71.97;100990.66;5031711;28;20503;-69
2022/04/19 05:11:04;;;;;;;0.10;0.10;;;;;;;8.94;71.36;100993.50;5042207;28;20025;-70
2022/04/19 05:13:30;;;;;;;0.10;0.10;;;;;;;9.03;70.52;100996.84;5030345;28;20026;-70
2022/04/19 05:15:58;;;;;;;0.10;0.10;;;;;;;9.01;69.86;100997.19;5031496;28;20025;-70
2022/04/19 05:18:30;;;;;;;0.20;0.20;;;;;;;9.02;69.20;101001.44;5028935;28;20034;-70
2022/04/19 05:20:56;;;;;;;0.10;0.10;;;;;;;9.12;69.04;100989.44;5017650;28;20373;-72
2022/04/19 05:23:22;;;;;;;0.08;0.08;;;;;;;9.16;68.69;100992.25;5004833;28;20029;-70
2022/04/19 05:25:48;;;;;;;0.10;0.10;;;;;;;9.42;67.14;101000.75;4991463;28;20133;-72
2022/04/19 05:28:14;;;;;;;0.00;0.00;;;;;;;9.45;67.12;100998.16;5006444;28;20037;-70
2022/04/19 05:30:40;;;;;;;0.10;0.10;;;;;;;9.41;67.62;101001.84;5044753;28;20378;-68
2022/04/19 05:33:06;;;;;;;0.10;0.10;;;;;;;9.40;68.26;101005.69;5053660;28;20025;-69
2022/04/19 05:35:32;;;;;;;0.10;0.10;;;;;;;9.49;67.14;101004.44;5041689;28;20036;-69
2022/04/19 05:37:59;;;;;;;0.10;0.10;;;;;;;9.45;66.20;100997.38;5038238;28;20083;-70
2022/04/19 05:40:27;;;;;;;0.10;0.10;;;;;;;9.50;66.25;100997.94;5021454;28;20037;-69
2022/04/19 05:42:54;;;;;;;0.10;0.10;;;;;;;9.59;66.00;100995.91;5034405;28;20375;-69
2022/04/19 05:45:20;;;;;;;0.10;0.10;;;;;;;9.60;65.23;101002.06;5034978;28;20037;-70
2022/04/19 05:47:46;;;;;;;0.05;0.05;;;;;;;9.60;64.97;100994.00;5035402;28;20091;-69
2022/04/19 05:50:11;;;;;;;0.22;0.22;;;;;;;9.74;65.14;100997.09;5038478;28;20028;-69
2022/04/19 05:52:37;;;;;;;0.30;0.30;;;;;;;9.84;63.53;101005.47;5034349;28;20028;-71
2022/04/19 05:55:08;;;;;;;0.10;0.10;;;;;;;10.02;63.50;101000.59;5039496;28;20025;-69
2022/04/19 05:57:34;;;;;;;0.00;0.00;;;;;;;10.21;61.96;101003.47;5023829;28;20409;-69
2022/04/19 05:59:59;;;;;;;0.10;0.10;;;;;;;10.25;60.07;101007.03;5024010;28;20037;-69
2022/04/19 06:05:12;;;;;;;0.10;0.10;;;;;;;10.48;57.77;101013.44;5024234;28;20040;-70
2022/04/19 06:07:45;;;;;;;0.10;0.10;;;;;;;10.63;57.63;101009.97;5038123;28;20032;-70
2022/04/19 06:10:12;;;;;;;0.10;0.10;;;;;;;10.78;57.17;101003.81;5022361;28;20140;-70
2022/04/19 06:12:38;;;;;;;0.10;0.10;;;;;;;10.90;54.92;101006.44;5024338;28;20029;-70
2022/04/19 06:15:05;;;;;;;0.10;0.10;;;;;;;10.89;54.69;101012.97;5040590;28;20053;-69
2022/04/19 06:17:32;;;;;;;0.05;0.05;;;;;;;10.89;54.99;101002.19;5022268;28;20033;-69
2022/04/19 06:20:02;;;;;;;0.10;0.10;;;;;;;10.94;56.28;101008.44;5027144;28;20044;-68
2022/04/19 06:22:28;;;;;;;0.10;0.10;;;;;;;10.89;55.94;101012.97;5036421;28;20032;-69
2022/04/19 06:24:59;;;;;;;0.10;0.10;;;;;;;11.07;55.47;101010.66;5025416;28;20044;-70
2022/04/19 06:27:25;;;;;;;0.10;0.10;;;;;;;11.18;55.48;101014.41;5021833;28;20025;-69
2022/04/19 06:29:52;;;;;;;0.10;0.10;;;;;;;11.29;56.34;101020.03;5038220;28;20440;-71
2022/04/19 06:32:19;;;;;;;0.20;0.20;;;;;;;11.47;57.02;101023.94;5046062;28;20057;-70
2022/04/19 06:34:47;;;;;;;0.10;0.10;;;;;;;11.70;55.03;101020.25;5044433;28;20783;-71
2022/04/19 06:37:16;;;;;;;0.10;0.10;;;;;;;11.87;54.44;101024.47;5037123;28;20588;-70
2022/04/19 06:39:45;;;;;;;0.10;0.10;;;;;;;12.09;53.96;101021.06;5038286;28;20104;-70
2022/04/19 06:42:12;;;;;;;0.10;0.10;;;;;;;12.32;53.19;101019.22;5020338;28;20099;-69
2022/04/19 06:45:11;;;;;;;0.40;0.40;;;;;;;12.43;52.74;101020.19;5037911;28;20056;-69
2022/04/19 06:47:38;;;;;;;0.10;0.10;;;;;;;12.64;51.42;101023.28;5022390;28;20035;-69
2022/04/19 06:50:05;;;;;;;0.20;0.20;;;;;;;12.50;51.51;101020.31;5018814;28;20028;-69
2022/04/19 06:52:31;;;;;;;0.10;0.10;;;;;;;12.51;52.72;101030.00;5011793;28;20033;-68
2022/04/19 06:54:58;;;;;;;0.25;0.20;;;;;;;12.60;51.42;101025.13;5024956;28;20032;-69
2022/04/19 06:57:24;;;;;;;0.08;0.08;;;;;;;12.73;52.44;101024.97;5021788;28;20082;-69
2022/04/19 07:00:01;;;;;;;0.25;0.20;;;;;;;12.76;51.48;101026.94;5022340;28;20032;-69
2022/04/19 07:02:27;;;;;;;0.03;0.03;;;;;;;12.82;50.33;101034.41;5024165;28;20278;-71
2022/04/19 07:04:55;;;;;;;0.10;0.10;;;;;;;13.02;47.78;101035.13;5045446;28;20083;-70
2022/04/19 07:07:21;;;;;;;0.25;0.25;;;;;;;12.96;48.38;101031.94;5023949;28;20049;-70
2022/04/19 07:09:49;;;;;;;0.15;0.15;;;;;;;12.92;48.93;101039.22;5049765;28;20112;-71
2022/04/19 07:12:15;;;;;;;0.08;0.08;;;;;;;12.98;48.31;101028.88;5025963;28;20033;-71
2022/04/19 07:14:53;;;;;;;0.05;0.05;;;;;;;13.03;48.00;101044.78;5036101;28;21970;-72
2022/04/19 07:17:44;;;;;;;;;;;;;;;12.94;47.94;101039.63;5039183;28;20037;-72
2022/04/19 07:28:24;;;;;;;0.10;0.10;;;;;;;13.66;46.94;101043.09;5021161;28;20128;-72
2022/04/19 07:30:49;;;;;;;0.00;0.00;;;;;;;13.77;47.64;101044.03;5037212;28;20033;-72
2022/04/19 07:33:17;;;;;;;0.32;0.32;;;;;;;13.91;47.87;101044.22;5031832;28;20141;-71
2022/04/19 07:35:45;;;;;;;0.10;0.10;;;;;;;14.01;47.26;101045.50;5039557;28;20064;-71
2022/04/19 07:38:11;;;;;;;0.03;0.03;;;;;;;14.07;47.88;101036.66;5024414;28;20029;-71
2022/04/19 07:41:07;;;;;;;0.00;0.00;;;;;;;14.01;47.20;101042.78;5044223;28;20040;-71
2022/04/19 07:43:36;;;;;;;1.55;0.32;;;;;;;14.30;45.94;101050.16;5046767;28;20404;-71
2022/04/19 07:46:04;;;;;;;0.00;0.00;;;;;;;14.48;44.80;101044.94;5030338;28;20029;-71
2022/04/19 07:48:30;;;;;;;0.10;0.10;;;;;;;14.51;45.24;101047.66;5023892;28;20052;-70
2022/04/19 07:50:56;;;;;;;0.08;0.08;;;;;;;14.74;44.15;101040.16;5045575;28;20472;-71
2022/04/19 07:53:22;;;;;;;0.00;0.00;;;;;;;14.89;44.44;101039.13;5043881;28;20052;-71
2022/04/19 07:55:50;;;;;;;0.05;0.05;;;;;;;15.09;45.04;101042.41;5033293;28;20033;-70
2022/04/19 07:58:15;;;;;;;0.00;0.00;;;;;;;15.52;43.73;101036.16;5008892;28;20035;-71
2022/04/19 08:00:42;;;;;;;0.00;0.00;;;;;;;15.69;43.91;101043.66;5027944;28;20051;-71
2022/04/19 08:03:08;;;;;;;0.32;0.32;;;;;;;15.78;44.09;101044.06;5045738;28;20045;-71
2022/04/19 08:05:33;;;;;;;0.20;0.20;;;;;;;15.93;44.71;101037.53;5026492;28;20047;-71
2022/04/19 08:07:59;;;;;;;0.17;0.17;;;;;;;16.03;44.76;101041.47;5046542;28;20059;-70
2022/04/19 08:10:25;;;;;;;0.00;0.00;;;;;;;16.10;42.89;101034.13;5047413;28;20112;-70
2022/04/19 08:12:50;;;;;;;0.65;0.20;;;;;;;16.18;43.77;101043.84;5045130;28;20036;-71
2022/04/19 08:15:16;;;;;;;0.00;0.00;;;;;;;16.46;42.72;101039.69;5032333;28;20027;-71
2022/04/19 08:17:41;;;;;;;0.00;0.00;;;;;;;16.22;43.07;101030.28;5033196;28;20037;-70
2022/04/19 08:20:08;;;;;;;0.00;0.00;;;;;;;16.42;44.66;101033.44;5045797;28;20037;-71
2022/04/19 08:22:35;;;;;;;0.03;0.03;;;;;;;16.80;44.23;101030.06;5053312;28;20029;-70
2022/04/19 08:25:10;;;;;;;0.30;0.30;;;;;;;16.72;42.90;101028.50;5043330;28;20114;-70
2022/04/19 08:27:42;;;;;;;0.10;0.10;;;;;;;16.66;43.27;101044.44;5055637;28;20386;-70
2022/04/19 08:30:09;;;;;;;0.00;0.00;;;;;;;16.81;44.00;101026.19;5056483;28;20524;-71
2022/04/19 08:32:35;;;;;;;1.95;0.25;;;;;;;16.84;44.07;101025.41;5026501;28;20504;-70
2022/04/19 08:35:01;;;;;;;0.10;0.10;;;;;;;16.90;44.54;101023.84;5030131;28;20043;-71
2022/04/19 08:37:31;;;;;;;0.10;0.10;;;;;;;16.90;44.44;101029.28;5051201;28;20509;-70
2022/04/19 08:39:56;;;;;;;0.00;0.00;;;;;;;16.97;44.13;101024.66;5044516;28;20033;-70
2022/04/19 08:42:22;;;;;;;0.00;0.00;;;;;;;17.33;44.26;101032.78;5027973;28;20425;-71
2022/04/19 08:44:48;;;;;;;0.08;0.08;;;;;;;17.50;42.70;101027.34;5033414;28;20508;-70
2022/04/19 08:47:14;;;;;;;0.45;0.22;;;;;;;17.42;43.05;101025.75;5048409;28;20044;-70
2022/04/19 08:49:41;;;;;;;0.10;0.10;;;;;;;17.63;42.96;101025.78;5050376;28;20029;-70
2022/04/19 08:52:08;;;;;;;0.38;0.20;;;;;;;17.69;43.68;101024.19;5034502;28;20075;-70
2022/04/19 08:57:29;;;;;;;0.10;0.10;;;;;;;17.92;42.36;101012.84;5034311;28;20037;-70
2022/04/19 08:59:55;;;;;;;0.22;0.22;;;;;;;17.92;42.39;101023.72;5032051;28;20041;-71
2022/04/19 09:02:23;;;;;;;0.10;0.10;;;;;;;18.02;42.50;101029.13;5040795;28;20075;-71
2022/04/19 09:04:50;;;;;;;0.17;0.17;;;;;;;18.25;42.92;101028.66;5047780;28;20067;-72
2022/04/19 09:07:19;;;;;;;0.00;0.00;;;;;;;18.36;43.85;101031.31;5011286;28;20137;-72
2022/04/19 09:09:59;;;;;;;0.20;0.20;;;;;;;18.48;43.51;101028.16;5050442;28;20497;-71
2022/04/19 09:12:25;;;;;;;0.00;0.00;;;;;;;18.55;42.26;101039.81;5041339;28;20132;-71
2022/04/19 09:15:06;;;;;;;0.00;0.00;;;;;;;18.67;42.99;101031.16;5030329;28;20036;-71
2022/04/19 09:17:36;;;;;;;0.88;0.28;;;;;;;18.70;43.51;101029.56;5039661;28;20044;-71
2022/04/19 09:20:15;;;;;;;0.00;0.00;;;;;;;19.01;42.74;101030.53;5031440;28;20041;-71
2022/04/19 09:22:42;;;;;;;0.03;0.03;;;;;;;19.01;41.27;101034.00;5044043;28;20041;-71
2022/04/19 09:25:18;;;;;;;0.82;0.82;;;;;;;18.97;42.01;101033.25;5038201;28;20111;-70
2022/04/19 09:27:49;;;;;;;0.00;0.00;;;;;;;19.09;42.86;101027.31;5037001;28;20043;-70
2022/04/19 09:30:22;;;;;;;0.00;0.00;;;;;;;19.20;42.83;101029.97;5042118;28;20039;-71
2022/04/19 09:33:12;;;;;;;0.20;0.20;;;;;;;18.94;42.36;101031.34;5044404;28;20036;-70
2022/04/19 09:35:47;;;;;;;0.13;0.03;;;;;;;19.25;42.82;101026.78;5047879;28;20041;-70
2022/04/19 09:38:13;;;;;;;0.10;0.10;;;;;;;19.31;42.99;101025.97;5049819;28;20122;-70
2022/04/19 09:40:41;;;;;;;0.00;0.00;;;;;;;19.58;42.83;101024.16;5051072;28;20064;-71
2022/04/19 09:43:14;;;;;;;0.00;0.00;;;;;;;19.73;42.26;101020.09;5045555;28;20123;-70
2022/04/19 09:45:51;;;;;;;0.00;0.00;;;;;;;19.67;42.00;101031.88;5054517;28;20492;-70
2022/04/19 09:48:19;;;;;;;0.63;0.22;;;;;;;19.47;41.93;101018.00;5046134;28;20108;-70
2022/04/19 09:50:59;;;;;;;0.00;0.00;;;;;;;19.65;41.92;101028.75;5032124;28;20098;-70
2022/04/19 09:53:27;;;;;;;0.10;0.00;;;;;;;19.75;41.14;101030.59;5028301;28;20039;-70
2022/04/19 09:55:55;;;;;;;0.00;0.00;;;;;;;19.89;41.33;101029.69;5043643;28;20083;-70
2022/04/19 09:58:21;;;;;;;0.00;0.00;;;;;;;19.96;41.23;101027.63;5035936;28;20829;-70
2022/04/19 10:00:48;;;;;;;0.00;0.00;;;;;;;20.09;40.76;101036.09;5015890;28;20036;-71
2022/04/19 10:08:38;;;;;;;0.00;0.00;;;;;;;19.99;39.98;101012.38;5028015;28;20053;-70
2022/04/19 10:11:05;;;;;;;0.10;0.03;;;;;;;20.16;40.35;101030.50;5046312;28;20033;-70
2022/04/19 10:13:33;;;;;;;0.00;0.00;;;;;;;20.05;40.12;101029.88;5046385;28;20036;-70
2022/04/19 10:15:59;;;;;;;0.00;0.00;;;;;;;20.15;39.84;101029.72;5048614;28;20532;-70
2022/04/19 10:18:24;;;;;;;0.10;0.10;;;;;;;20.02;39.33;101033.41;5044535;28;20073;-70
2022/04/19 10:20:58;;;;;;;0.00;0.00;;;;;;;20.11;39.50;101039.19;5032235;28;20501;-69
2022/04/19 10:23:34;;;;;;;0.00;0.00;;;;;;;20.34;39.72;101036.56;5045821;28;20440;-69
2022/04/19 10:26:12;;;;;;;0.00;0.00;;;;;;;20.58;39.86;101035.44;5019556;28;20128;-69
2022/04/19 10:28:38;;;;;;;0.00;0.00;;;;;;;20.43;38.33;101029.41;5024238;28;20037;-69
2022/04/19 10:31:04;;;;;;;0.08;0.08;;;;;;;20.21;38.69;101041.81;5033299;28;20079;-70
2022/04/19 10:33:39;;;;;;;0.00;0.00;;;;;;;20.39;39.12;101036.09;5048217;28;20041;-70
2022/04/19 10:36:37;;;;;;;0.00;0.00;;;;;;;20.30;38.71;101042.09;5040073;28;20042;-70
2022/04/19 10:39:16;;;;;;;0.10;0.10;;;;;;;20.45;39.36;101045.41;5016924;28;20037;-71
2022/04/19 10:41:52;;;;;;;0.00;0.00;;;;;;;20.20;38.95;101028.53;5032626;28;20034;-70
2022/04/19 10:44:28;;;;;;;0.68;0.38;;;;;;;20.17;39.49;101026.59;5030561;28;20072;-69
2022/04/19 10:47:17;;;;;;;0.00;0.00;;;;;;;20.56;38.48;101032.34;5033495;28;20275;-69
2022/04/19 10:50:05;;;;;;;0.00;0.00;;;;;;;20.78;38.52;101025.34;5027305;28;20041;-71
2022/04/19 10:52:40;;;;;;;0.00;0.00;;;;;;;20.72;37.75;101023.50;5024303;28;20556;-70
2022/04/19 10:55:23;;;;;;;0.00;0.00;;;;;;;20.69;37.71;101019.66;5011879;28;20037;-70
2022/04/19 10:58:16;;;;;;;0.00;0.00;;;;;;;20.74;37.77;101021.13;5015135;28;20044;-70
2022/04/19 11:00:41;;;;;;;0.00;0.00;;;;;;;20.73;37.18;101023.06;5029900;28;20040;-70
2022/04/19 11:03:18;;;;;;;0.00;0.00;;;;;;;20.49;37.67;101016.81;5041888;28;20033;-70
2022/04/19 11:05:50;;;;;;;0.10;0.10;;;;;;;20.57;37.31;101022.94;5047795;28;20037;-70
2022/04/19 11:08:25;;;;;;;0.00;0.00;;;;;;;20.65;38.12;101018.91;5047234;28;20397;-70
2022/04/19 11:11:20;;;;;;;0.55;0.55;;;;;;;20.83;38.39;101013.94;5045631;28;20029;-72
2022/04/19 11:14:22;;;;;;;0.00;0.00;;;;;;;21.09;37.57;101013.16;5039884;28;20041;-71
2022/04/19 11:16:53;;;;;;;0.00;0.00;;;;;;;21.37;39.27;101014.59;5042538;28;20570;-73
2022/04/19 11:19:22;;;;;;;0.00;0.00;;;;;;;21.42;37.99;101012.16;5045214;28;20047;-70
2022/04/19 11:21:59;;;;;;;0.00;0.00;;;;;;;21.45;37.34;101021.50;5045296;28;20076;-71
2022/04/19 11:25:03;;;;;;;0.00;0.00;;;;;;;21.68;37.80;101018.72;5044143;28;20111;-71
2022/04/19 11:27:54;;;;;;;0.47;0.30;;;;;;;21.72;36.42;101015.94;5047409;28;20032;-72
2022/04/19 11:30:24;;;;;;;0.08;0.08;;;;;;;21.73;36.83;101014.72;5042682;28;20121;-70
2022/04/19 11:32:56;;;;;;;0.00;0.00;;;;;;;21.75;37.45;101018.59;5029103;28;20044;-69
2022/04/19 11:35:22;;;;;;;0.00;0.00;;;;;;;21.52;36.29;101011.19;5045641;28;20557;-70
2022/04/19 11:37:48;;;;;;;0.00;0.00;;;;;;;21.84;37.19;101023.53;5028141;28;20175;-71
2022/04/19 11:48:45;;;;;;;0.00;0.00;;;;;;;21.37;35.34;101020.84;5039646;28;20590;-70
2022/04/19 11:51:13;;;;;;;0.00;0.00;;;;;;;21.62;35.70;101008.69;5050184;28;20032;-70
2022/04/19 11:53:38;;;;;;;0.00;0.00;;;;;;;21.50;34.33;101013.56;5040314;28;20041;-72
2022/04/19 11:56:06;;;;;;;0.00;0.00;;;;;;;21.14;35.05;101011.88;5035331;28;20083;-70
2022/04/19 11:58:32;;;;;;;0.00;0.00;;;;;;;21.00;35.92;101012.09;5036000;28;20044;-73
2022/04/19 12:01:03;;;;;;;0.00;0.00;;;;;;;21.23;36.82;101001.16;5038250;28;20397;-73
2022/04/19 12:03:31;;;;;;;0.00;0.00;;;;;;;21.86;37.26;101001.94;5045407;28;20037;-72
2022/04/19 12:06:04;;;;;;;0.03;0.03;;;;;;;22.13;34.95;101008.03;5046516;28;20032;-72
2022/04/19 12:08:43;;;;;;;0.08;0.08;;;;;;;22.15;34.99;101005.63;5027936;28;20396;-72
2022/04/19 12:11:11;;;;;;;0.00;0.00;;;;;;;21.99;33.92;100997.38;5045170;28;20033;-72
2022/04/19 12:13:41;;;;;;;0.00;0.00;;;;;;;22.02;34.09;101002.78;5039351;28;20901;-70
2022/04/19 12:16:09;;;;;;;0.00;0.00;;;;;;;22.12;33.33;101003.75;5012715;28;20588;-71
2022/04/19 12:18:36;;;;;;;0.00;0.00;;;;;;;21.93;33.67;100999.06;5047353;28;20040;-71
2022/04/19 12:21:03;;;;;;;0.00;0.00;;;;;;;21.60;32.91;100994.63;5043965;28;20065;-72